sensor_id;sensor_type;location;lat;lon;timestamp;P1;durP1;ratioP1;P2;durP2;ratioP2
21624;SDS011;10974;51.034;3.744;2023-08-21T03:41:18;4.00;;;1.73;;
21624;SDS011;10974;51.034;3.744;2023-08-21T03:43:44;3.23;;;1.90;;
21624;SDS011;10974;51.034;3.744;2023-08-21T03:46:10;3.00;;;1.63;;
21624;SDS011;10974;51.034;3.744;2023-08-21T03:48:36;3.40;;;1.97;;
21624;SDS011;10974;51.034;3.744;2023-08-21T03:51:02;3.20;;;1.67;;
21624;SDS011;10974;51.034;3.744;2023-08-21T03:53:28;3.53;;;1.90;;
21624;SDS011;10974;51.034;3.744;2023-08-21T03:55:54;4.10;;;1.63;;
21624;SDS011;10974;51.034;3.744;2023-08-21T03:58:20;2.87;;;1.57;;
21624;SDS011;10974;51.034;3.744;2023-08-21T04:00:46;3.10;;;1.60;;
21624;SDS011;10974;51.034;3.744;2023-08-21T04:03:12;3.00;;;1.40;;
21624;SDS011;10974;51.034;3.744;2023-08-21T04:05:39;2.37;;;1.47;;
21624;SDS011;10974;51.034;3.744;2023-08-21T04:08:05;4.90;;;1.80;;
21624;SDS011;10974;51.034;3.744;2023-08-21T04:10:31;3.00;;;1.57;;
21624;SDS011;10974;51.034;3.744;2023-08-21T04:12:57;3.60;;;1.60;;
21624;SDS011;10974;51.034;3.744;2023-08-21T04:15:23;2.50;;;1.70;;
21624;SDS011;10974;51.034;3.744;2023-08-21T04:17:49;2.50;;;1.50;;
21624;SDS011;10974;51.034;3.744;2023-08-21T04:20:15;4.53;;;1.70;;
21624;SDS011;10974;51.034;3.744;2023-08-21T04:22:41;4.00;;;1.87;;
21624;SDS011;10974;51.034;3.744;2023-08-21T04:25:07;5.17;;;1.90;;
21624;SDS011;10974;51.034;3.744;2023-08-21T04:27:33;3.67;;;1.77;;
21624;SDS011;10974;51.034;3.744;2023-08-21T04:29:59;1.93;;;1.70;;
21624;SDS011;10974;51.034;3.744;2023-08-21T04:32:25;2.60;;;1.83;;
21624;SDS011;10974;51.034;3.744;2023-08-21T04:34:51;3.67;;;1.80;;
21624;SDS011;10974;51.034;3.744;2023-08-21T04:37:17;3.37;;;1.70;;
21624;SDS011;10974;51.034;3.744;2023-08-21T04:39:43;4.23;;;1.73;;
21624;SDS011;10974;51.034;3.744;2023-08-21T04:42:10;1.63;;;1.40;;
21624;SDS011;10974;51.034;3.744;2023-08-21T04:44:36;4.03;;;1.70;;
21624;SDS011;10974;51.034;3.744;2023-08-21T04:47:21;2.30;;;1.40;;
21624;SDS011;10974;51.034;3.744;2023-08-21T04:49:51;2.97;;;1.60;;
21624;SDS011;10974;51.034;3.744;2023-08-21T04:52:18;6.10;;;2.03;;
21624;SDS011;10974;51.034;3.744;2023-08-21T04:54:44;5.20;;;2.27;;
21624;SDS011;10974;51.034;3.744;2023-08-21T04:57:10;6.07;;;2.10;;
21624;SDS011;10974;51.034;3.744;2023-08-21T04:59:36;4.90;;;2.23;;
21624;SDS011;10974;51.034;3.744;2023-08-21T05:02:02;5.53;;;2.00;;
21624;SDS011;10974;51.034;3.744;2023-08-21T05:04:28;3.50;;;2.03;;
21624;SDS011;10974;51.034;3.744;2023-08-21T05:06:54;5.93;;;2.27;;
21624;SDS011;10974;51.034;3.744;2023-08-21T05:09:20;4.67;;;1.80;;
21624;SDS011;10974;51.034;3.744;2023-08-21T05:11:46;8.57;;;2.43;;
21624;SDS011;10974;51.034;3.744;2023-08-21T05:14:12;4.27;;;2.20;;
21624;SDS011;10974;51.034;3.744;2023-08-21T05:16:38;4.30;;;1.93;;
21624;SDS011;10974;51.034;3.744;2023-08-21T05:19:05;4.43;;;1.90;;
21624;SDS011;10974;51.034;3.744;2023-08-21T05:21:31;7.00;;;2.33;;
21624;SDS011;10974;51.034;3.744;2023-08-21T05:23:57;7.53;;;2.17;;
21624;SDS011;10974;51.034;3.744;2023-08-21T05:26:23;7.33;;;2.87;;
21624;SDS011;10974;51.034;3.744;2023-08-21T05:28:49;6.73;;;3.87;;
21624;SDS011;10974;51.034;3.744;2023-08-21T05:31:15;7.90;;;3.40;;
21624;SDS011;10974;51.034;3.744;2023-08-21T05:33:41;7.73;;;3.00;;
21624;SDS011;10974;51.034;3.744;2023-08-21T05:36:07;6.37;;;2.47;;
21624;SDS011;10974;51.034;3.744;2023-08-21T05:38:33;7.47;;;2.87;;
21624;SDS011;10974;51.034;3.744;2023-08-21T05:40:59;8.48;;;3.55;;
21624;SDS011;10974;51.034;3.744;2023-08-21T05:43:26;9.30;;;5.30;;
21624;SDS011;10974;51.034;3.744;2023-08-21T05:45:52;9.77;;;4.40;;
21624;SDS011;10974;51.034;3.744;2023-08-21T05:48:18;12.13;;;4.93;;
21624;SDS011;10974;51.034;3.744;2023-08-21T05:50:44;10.03;;;4.60;;
21624;SDS011;10974;51.034;3.744;2023-08-21T05:53:10;10.87;;;4.63;;
21624;SDS011;10974;51.034;3.744;2023-08-21T05:55:39;10.40;;;5.13;;
21624;SDS011;10974;51.034;3.744;2023-08-21T05:58:05;12.90;;;5.10;;
21624;SDS011;10974;51.034;3.744;2023-08-21T06:00:33;14.30;;;5.67;;
21624;SDS011;10974;51.034;3.744;2023-08-21T06:02:59;13.87;;;6.30;;
21624;SDS011;10974;51.034;3.744;2023-08-21T06:05:25;17.80;;;5.43;;
21624;SDS011;10974;51.034;3.744;2023-08-21T06:07:51;11.90;;;5.60;;
21624;SDS011;10974;51.034;3.744;2023-08-21T06:10:17;13.83;;;5.73;;
21624;SDS011;10974;51.034;3.744;2023-08-21T06:12:43;13.07;;;5.70;;
21624;SDS011;10974;51.034;3.744;2023-08-21T06:15:10;12.00;;;5.60;;
21624;SDS011;10974;51.034;3.744;2023-08-21T06:17:37;12.27;;;5.50;;
21624;SDS011;10974;51.034;3.744;2023-08-21T06:20:04;13.60;;;5.23;;
21624;SDS011;10974;51.034;3.744;2023-08-21T06:22:36;15.87;;;6.33;;
21624;SDS011;10974;51.034;3.744;2023-08-21T06:25:03;15.90;;;5.57;;
21624;SDS011;10974;51.034;3.744;2023-08-21T06:27:29;15.07;;;5.87;;
21624;SDS011;10974;51.034;3.744;2023-08-21T06:29:55;12.33;;;5.93;;
21624;SDS011;10974;51.034;3.744;2023-08-21T06:32:21;14.73;;;6.53;;
21624;SDS011;10974;51.034;3.744;2023-08-21T06:34:47;18.90;;;6.93;;
21624;SDS011;10974;51.034;3.744;2023-08-21T06:37:13;19.70;;;7.43;;
21624;SDS011;10974;51.034;3.744;2023-08-21T06:39:40;21.13;;;7.90;;
21624;SDS011;10974;51.034;3.744;2023-08-21T06:42:06;16.43;;;7.03;;
21624;SDS011;10974;51.034;3.744;2023-08-21T06:44:32;14.83;;;7.00;;
21624;SDS011;10974;51.034;3.744;2023-08-21T06:46:59;18.13;;;7.47;;
21624;SDS011;10974;51.034;3.744;2023-08-21T06:49:25;17.87;;;6.90;;
21624;SDS011;10974;51.034;3.744;2023-08-21T06:51:51;14.87;;;6.97;;
21624;SDS011;10974;51.034;3.744;2023-08-21T06:54:17;20.40;;;7.57;;
21624;SDS011;10974;51.034;3.744;2023-08-21T06:56:43;17.53;;;7.70;;
21624;SDS011;10974;51.034;3.744;2023-08-21T06:59:09;19.87;;;6.53;;
21624;SDS011;10974;51.034;3.744;2023-08-21T07:01:35;18.10;;;7.07;;
21624;SDS011;10974;51.034;3.744;2023-08-21T07:04:01;16.33;;;6.73;;
21624;SDS011;10974;51.034;3.744;2023-08-21T07:06:27;18.00;;;7.20;;
21624;SDS011;10974;51.034;3.744;2023-08-21T07:08:54;15.33;;;7.40;;
21624;SDS011;10974;51.034;3.744;2023-08-21T07:11:20;17.53;;;7.43;;
21624;SDS011;10974;51.034;3.744;2023-08-21T07:13:46;17.47;;;7.63;;
21624;SDS011;10974;51.034;3.744;2023-08-21T07:16:12;15.73;;;7.20;;
21624;SDS011;10974;51.034;3.744;2023-08-21T07:18:38;23.57;;;7.73;;
21624;SDS011;10974;51.034;3.744;2023-08-21T07:21:05;15.93;;;6.80;;
21624;SDS011;10974;51.034;3.744;2023-08-21T07:23:31;18.60;;;6.80;;
21624;SDS011;10974;51.034;3.744;2023-08-21T07:25:58;13.77;;;7.33;;
21624;SDS011;10974;51.034;3.744;2023-08-21T07:28:25;15.07;;;7.40;;
21624;SDS011;10974;51.034;3.744;2023-08-21T07:30:54;20.13;;;7.90;;
21624;SDS011;10974;51.034;3.744;2023-08-21T07:33:21;15.97;;;7.70;;
21624;SDS011;10974;51.034;3.744;2023-08-21T07:35:47;21.63;;;8.43;;
21624;SDS011;10974;51.034;3.744;2023-08-21T07:38:13;16.50;;;7.80;;
21624;SDS011;10974;51.034;3.744;2023-08-21T07:40:39;18.53;;;7.40;;
21624;SDS011;10974;51.034;3.744;2023-08-21T07:43:05;24.83;;;8.10;;
21624;SDS011;10974;51.034;3.744;2023-08-21T07:45:31;15.37;;;7.40;;
21624;SDS011;10974;51.034;3.744;2023-08-21T07:47:57;19.33;;;8.30;;
21624;SDS011;10974;51.034;3.744;2023-08-21T07:50:23;24.80;;;7.87;;
21624;SDS011;10974;51.034;3.744;2023-08-21T07:52:49;19.30;;;8.20;;
21624;SDS011;10974;51.034;3.744;2023-08-21T07:55:15;17.87;;;8.57;;
21624;SDS011;10974;51.034;3.744;2023-08-21T07:57:41;23.30;;;8.57;;
21624;SDS011;10974;51.034;3.744;2023-08-21T08:00:08;13.77;;;8.43;;
21624;SDS011;10974;51.034;3.744;2023-08-21T08:02:34;13.50;;;7.83;;
21624;SDS011;10974;51.034;3.744;2023-08-21T08:05:00;15.67;;;8.40;;
21624;SDS011;10974;51.034;3.744;2023-08-21T08:07:26;13.80;;;8.00;;
21624;SDS011;10974;51.034;3.744;2023-08-21T08:09:52;11.57;;;6.60;;
21624;SDS011;10974;51.034;3.744;2023-08-21T08:12:18;17.57;;;6.60;;
21624;SDS011;10974;51.034;3.744;2023-08-21T08:14:45;14.63;;;5.27;;
21624;SDS011;10974;51.034;3.744;2023-08-21T08:17:11;9.00;;;5.87;;
21624;SDS011;10974;51.034;3.744;2023-08-21T08:19:37;11.40;;;7.20;;
21624;SDS011;10974;51.034;3.744;2023-08-21T08:22:03;11.30;;;6.50;;
21624;SDS011;10974;51.034;3.744;2023-08-21T08:24:30;8.30;;;5.70;;
21624;SDS011;10974;51.034;3.744;2023-08-21T08:26:56;10.20;;;5.70;;
21624;SDS011;10974;51.034;3.744;2023-08-21T08:29:22;9.97;;;4.90;;
21624;SDS011;10974;51.034;3.744;2023-08-21T08:31:48;7.80;;;5.17;;
21624;SDS011;10974;51.034;3.744;2023-08-21T08:34:14;8.50;;;4.77;;
21624;SDS011;10974;51.034;3.744;2023-08-21T08:36:43;9.43;;;5.20;;
21624;SDS011;10974;51.034;3.744;2023-08-21T08:39:09;6.67;;;4.60;;
21624;SDS011;10974;51.034;3.744;2023-08-21T08:41:55;9.07;;;5.37;;
21624;SDS011;10974;51.034;3.744;2023-08-21T08:44:22;9.57;;;5.17;;
21624;SDS011;10974;51.034;3.744;2023-08-21T08:46:51;8.57;;;5.23;;
21624;SDS011;10974;51.034;3.744;2023-08-21T08:49:17;6.20;;;4.40;;
21624;SDS011;10974;51.034;3.744;2023-08-21T08:51:44;7.80;;;5.20;;
21624;SDS011;10974;51.034;3.744;2023-08-21T08:54:10;6.47;;;4.60;;
21624;SDS011;10974;51.034;3.744;2023-08-21T08:56:37;9.20;;;4.73;;
21624;SDS011;10974;51.034;3.744;2023-08-21T08:59:03;9.03;;;5.13;;
21624;SDS011;10974;51.034;3.744;2023-08-21T09:01:29;7.67;;;4.90;;
21624;SDS011;10974;51.034;3.744;2023-08-21T09:03:55;9.17;;;5.10;;
21624;SDS011;10974;51.034;3.744;2023-08-21T09:06:21;6.70;;;4.70;;
21624;SDS011;10974;51.034;3.744;2023-08-21T09:08:54;6.97;;;4.10;;
21624;SDS011;10974;51.034;3.744;2023-08-21T09:11:21;7.10;;;5.00;;
21624;SDS011;10974;51.034;3.744;2023-08-21T09:13:50;5.23;;;4.50;;
21624;SDS011;10974;51.034;3.744;2023-08-21T09:16:20;7.13;;;4.67;;
21624;SDS011;10974;51.034;3.744;2023-08-21T09:18:49;5.60;;;3.90;;
21624;SDS011;10974;51.034;3.744;2023-08-21T09:21:18;6.37;;;4.77;;
21624;SDS011;10974;51.034;3.744;2023-08-21T09:23:45;6.90;;;4.30;;
21624;SDS011;10974;51.034;3.744;2023-08-21T09:26:17;7.33;;;4.30;;
21624;SDS011;10974;51.034;3.744;2023-08-21T09:28:45;4.70;;;3.53;;
21624;SDS011;10974;51.034;3.744;2023-08-21T09:31:11;4.60;;;3.63;;
21624;SDS011;10974;51.034;3.744;2023-08-21T09:33:37;4.23;;;3.80;;
21624;SDS011;10974;51.034;3.744;2023-08-21T09:36:03;4.67;;;3.63;;
21624;SDS011;10974;51.034;3.744;2023-08-21T09:38:30;5.70;;;3.60;;
21624;SDS011;10974;51.034;3.744;2023-08-21T09:40:56;4.67;;;3.47;;
21624;SDS011;10974;51.034;3.744;2023-08-21T09:43:23;6.77;;;4.23;;
21624;SDS011;10974;51.034;3.744;2023-08-21T09:45:50;5.80;;;4.17;;
21624;SDS011;10974;51.034;3.744;2023-08-21T09:48:23;5.60;;;4.20;;
21624;SDS011;10974;51.034;3.744;2023-08-21T09:50:51;5.13;;;4.10;;
21624;SDS011;10974;51.034;3.744;2023-08-21T09:53:18;5.10;;;4.03;;
21624;SDS011;10974;51.034;3.744;2023-08-21T09:55:44;4.23;;;3.47;;
21624;SDS011;10974;51.034;3.744;2023-08-21T09:58:11;7.50;;;3.60;;
21624;SDS011;10974;51.034;3.744;2023-08-21T10:00:38;3.90;;;2.73;;
21624;SDS011;10974;51.034;3.744;2023-08-21T10:03:06;5.40;;;3.30;;
21624;SDS011;10974;51.034;3.744;2023-08-21T10:05:33;4.33;;;2.90;;
21624;SDS011;10974;51.034;3.744;2023-08-21T10:08:02;4.00;;;3.20;;
21624;SDS011;10974;51.034;3.744;2023-08-21T10:10:30;6.13;;;3.70;;
21624;SDS011;10974;51.034;3.744;2023-08-21T10:12:56;5.67;;;3.10;;
21624;SDS011;10974;51.034;3.744;2023-08-21T10:15:23;3.90;;;2.60;;
21624;SDS011;10974;51.034;3.744;2023-08-21T10:17:50;5.37;;;2.90;;
21624;SDS011;10974;51.034;3.744;2023-08-21T10:20:20;4.60;;;2.83;;
21624;SDS011;10974;51.034;3.744;2023-08-21T10:22:48;4.83;;;3.03;;
21624;SDS011;10974;51.034;3.744;2023-08-21T10:25:19;4.90;;;3.40;;
21624;SDS011;10974;51.034;3.744;2023-08-21T10:27:49;3.83;;;2.93;;
21624;SDS011;10974;51.034;3.744;2023-08-21T10:30:15;3.20;;;2.77;;
21624;SDS011;10974;51.034;3.744;2023-08-21T10:32:48;4.13;;;2.60;;
21624;SDS011;10974;51.034;3.744;2023-08-21T10:35:16;5.17;;;2.80;;
21624;SDS011;10974;51.034;3.744;2023-08-21T10:40:28;3.97;;;3.00;;
21624;SDS011;10974;51.034;3.744;2023-08-21T10:42:55;2.90;;;2.60;;
21624;SDS011;10974;51.034;3.744;2023-08-21T10:45:21;4.72;;;2.90;;
21624;SDS011;10974;51.034;3.744;2023-08-21T10:47:47;3.17;;;2.70;;
21624;SDS011;10974;51.034;3.744;2023-08-21T10:50:15;3.53;;;2.80;;
21624;SDS011;10974;51.034;3.744;2023-08-21T10:52:42;3.53;;;2.53;;
21624;SDS011;10974;51.034;3.744;2023-08-21T10:55:14;2.70;;;2.47;;
21624;SDS011;10974;51.034;3.744;2023-08-21T10:57:40;2.70;;;2.43;;
21624;SDS011;10974;51.034;3.744;2023-08-21T11:00:08;3.40;;;3.00;;
21624;SDS011;10974;51.034;3.744;2023-08-21T11:02:36;2.63;;;2.35;;
21624;SDS011;10974;51.034;3.744;2023-08-21T11:05:03;3.80;;;2.40;;
21624;SDS011;10974;51.034;3.744;2023-08-21T11:07:30;2.67;;;2.13;;
21624;SDS011;10974;51.034;3.744;2023-08-21T11:09:56;2.87;;;2.30;;
21624;SDS011;10974;51.034;3.744;2023-08-21T11:12:23;2.47;;;2.07;;
21624;SDS011;10974;51.034;3.744;2023-08-21T11:14:49;2.90;;;2.40;;
21624;SDS011;10974;51.034;3.744;2023-08-21T11:17:15;2.77;;;2.00;;
21624;SDS011;10974;51.034;3.744;2023-08-21T11:19:43;3.37;;;2.27;;
21624;SDS011;10974;51.034;3.744;2023-08-21T11:22:10;2.70;;;2.27;;
21624;SDS011;10974;51.034;3.744;2023-08-21T11:27:12;2.27;;;1.87;;
21624;SDS011;10974;51.034;3.744;2023-08-21T11:29:40;4.10;;;2.40;;
21624;SDS011;10974;51.034;3.744;2023-08-21T11:32:13;3.33;;;2.33;;
21624;SDS011;10974;51.034;3.744;2023-08-21T11:34:40;2.80;;;2.20;;
21624;SDS011;10974;51.034;3.744;2023-08-21T11:37:07;2.60;;;1.90;;
21624;SDS011;10974;51.034;3.744;2023-08-21T11:39:47;2.83;;;2.13;;
21624;SDS011;10974;51.034;3.744;2023-08-21T11:42:13;2.33;;;2.10;;
21624;SDS011;10974;51.034;3.744;2023-08-21T11:44:41;2.30;;;2.00;;
21624;SDS011;10974;51.034;3.744;2023-08-21T11:47:07;2.63;;;1.63;;
21624;SDS011;10974;51.034;3.744;2023-08-21T11:49:35;2.40;;;1.97;;
21624;SDS011;10974;51.034;3.744;2023-08-21T11:52:02;3.17;;;2.13;;
21624;SDS011;10974;51.034;3.744;2023-08-21T11:54:32;2.10;;;1.63;;
21624;SDS011;10974;51.034;3.744;2023-08-21T11:56:58;2.43;;;1.87;;
21624;SDS011;10974;51.034;3.744;2023-08-21T11:59:24;3.77;;;2.13;;
21624;SDS011;10974;51.034;3.744;2023-08-21T12:01:51;9.10;;;3.33;;
21624;SDS011;10974;51.034;3.744;2023-08-21T12:04:17;3.83;;;2.40;;
21624;SDS011;10974;51.034;3.744;2023-08-21T12:06:44;3.60;;;2.47;;
21624;SDS011;10974;51.034;3.744;2023-08-21T12:09:10;6.77;;;2.53;;
21624;SDS011;10974;51.034;3.744;2023-08-21T12:11:36;3.33;;;2.20;;
21624;SDS011;10974;51.034;3.744;2023-08-21T12:14:03;4.17;;;2.37;;
21624;SDS011;10974;51.034;3.744;2023-08-21T12:16:29;3.77;;;2.10;;
21624;SDS011;10974;51.034;3.744;2023-08-21T12:18:56;3.13;;;2.00;;
21624;SDS011;10974;51.034;3.744;2023-08-21T12:21:23;2.93;;;2.20;;
21624;SDS011;10974;51.034;3.744;2023-08-21T12:23:49;3.30;;;2.10;;
21624;SDS011;10974;51.034;3.744;2023-08-21T12:26:15;5.87;;;2.67;;
21624;SDS011;10974;51.034;3.744;2023-08-21T12:28:47;2.87;;;2.00;;
21624;SDS011;10974;51.034;3.744;2023-08-21T12:31:14;3.33;;;1.97;;
21624;SDS011;10974;51.034;3.744;2023-08-21T12:33:40;2.10;;;1.90;;
21624;SDS011;10974;51.034;3.744;2023-08-21T12:36:06;3.67;;;2.30;;
21624;SDS011;10974;51.034;3.744;2023-08-21T12:38:35;5.10;;;2.80;;
21624;SDS011;10974;51.034;3.744;2023-08-21T12:41:01;4.37;;;2.50;;
21624;SDS011;10974;51.034;3.744;2023-08-21T12:43:27;3.70;;;2.50;;
21624;SDS011;10974;51.034;3.744;2023-08-21T12:45:54;3.53;;;2.20;;
21624;SDS011;10974;51.034;3.744;2023-08-21T12:48:20;2.23;;;2.03;;
21624;SDS011;10974;51.034;3.744;2023-08-21T12:50:46;4.63;;;2.30;;
21624;SDS011;10974;51.034;3.744;2023-08-21T12:53:12;4.23;;;2.50;;
21624;SDS011;10974;51.034;3.744;2023-08-21T12:55:38;7.17;;;3.67;;
21624;SDS011;10974;51.034;3.744;2023-08-21T12:58:04;11.47;;;3.80;;
21624;SDS011;10974;51.034;3.744;2023-08-21T13:00:31;8.43;;;3.27;;
21624;SDS011;10974;51.034;3.744;2023-08-21T13:03:00;6.13;;;2.50;;
21624;SDS011;10974;51.034;3.744;2023-08-21T13:05:26;3.77;;;2.43;;
21624;SDS011;10974;51.034;3.744;2023-08-21T13:07:52;3.30;;;2.00;;
21624;SDS011;10974;51.034;3.744;2023-08-21T13:10:18;9.23;;;2.93;;
21624;SDS011;10974;51.034;3.744;2023-08-21T13:12:44;8.90;;;2.93;;
21624;SDS011;10974;51.034;3.744;2023-08-21T13:15:10;5.13;;;2.67;;
21624;SDS011;10974;51.034;3.744;2023-08-21T13:17:36;5.50;;;2.60;;
21624;SDS011;10974;51.034;3.744;2023-08-21T13:20:03;3.23;;;1.93;;
21624;SDS011;10974;51.034;3.744;2023-08-21T13:22:43;5.70;;;2.07;;
21624;SDS011;10974;51.034;3.744;2023-08-21T13:25:09;4.50;;;2.23;;
21624;SDS011;10974;51.034;3.744;2023-08-21T13:27:35;2.97;;;2.07;;
21624;SDS011;10974;51.034;3.744;2023-08-21T13:30:01;7.40;;;2.27;;
21624;SDS011;10974;51.034;3.744;2023-08-21T13:32:27;3.50;;;2.00;;
21624;SDS011;10974;51.034;3.744;2023-08-21T13:34:54;5.13;;;1.77;;
21624;SDS011;10974;51.034;3.744;2023-08-21T13:37:20;4.00;;;1.80;;
21624;SDS011;10974;51.034;3.744;2023-08-21T13:39:47;4.00;;;1.80;;
21624;SDS011;10974;51.034;3.744;2023-08-21T13:42:13;3.07;;;1.90;;
21624;SDS011;10974;51.034;3.744;2023-08-21T13:44:39;1.60;;;1.50;;
21624;SDS011;10974;51.034;3.744;2023-08-21T13:47:05;6.27;;;1.87;;
21624;SDS011;10974;51.034;3.744;2023-08-21T13:49:31;1.80;;;1.60;;
21624;SDS011;10974;51.034;3.744;2023-08-21T13:51:57;2.63;;;1.63;;
21624;SDS011;10974;51.034;3.744;2023-08-21T13:54:23;3.77;;;1.53;;
21624;SDS011;10974;51.034;3.744;2023-08-21T13:56:49;2.00;;;1.60;;
21624;SDS011;10974;51.034;3.744;2023-08-21T13:59:15;1.70;;;1.40;;
21624;SDS011;10974;51.034;3.744;2023-08-21T14:01:41;2.10;;;1.67;;
21624;SDS011;10974;51.034;3.744;2023-08-21T14:04:07;2.50;;;1.43;;
21624;SDS011;10974;51.034;3.744;2023-08-21T14:06:34;1.63;;;1.50;;
21624;SDS011;10974;51.034;3.744;2023-08-21T14:09:00;1.60;;;1.50;;
21624;SDS011;10974;51.034;3.744;2023-08-21T14:11:26;1.63;;;1.53;;
21624;SDS011;10974;51.034;3.744;2023-08-21T14:13:52;1.60;;;1.50;;
21624;SDS011;10974;51.034;3.744;2023-08-21T14:16:18;1.50;;;1.40;;
21624;SDS011;10974;51.034;3.744;2023-08-21T14:18:44;1.40;;;1.30;;
21624;SDS011;10974;51.034;3.744;2023-08-21T14:21:10;1.90;;;1.60;;
21624;SDS011;10974;51.034;3.744;2023-08-21T14:23:36;1.70;;;1.60;;
21624;SDS011;10974;51.034;3.744;2023-08-21T14:26:04;1.93;;;1.63;;
21624;SDS011;10974;51.034;3.744;2023-08-21T14:28:30;1.73;;;1.63;;
21624;SDS011;10974;51.034;3.744;2023-08-21T14:30:56;2.67;;;1.67;;
21624;SDS011;10974;51.034;3.744;2023-08-21T14:33:22;2.33;;;1.40;;
21624;SDS011;10974;51.034;3.744;2023-08-21T14:35:48;1.63;;;1.50;;
21624;SDS011;10974;51.034;3.744;2023-08-21T14:38:15;1.80;;;1.50;;
21624;SDS011;10974;51.034;3.744;2023-08-21T14:40:41;2.27;;;1.80;;
21624;SDS011;10974;51.034;3.744;2023-08-21T14:43:07;2.23;;;1.40;;
21624;SDS011;10974;51.034;3.744;2023-08-21T14:45:33;2.63;;;2.13;;
21624;SDS011;10974;51.034;3.744;2023-08-21T14:48:00;1.70;;;1.53;;
21624;SDS011;10974;51.034;3.744;2023-08-21T14:50:26;3.50;;;1.60;;
21624;SDS011;10974;51.034;3.744;2023-08-21T14:52:52;2.33;;;1.90;;
21624;SDS011;10974;51.034;3.744;2023-08-21T14:55:18;1.70;;;1.60;;
21624;SDS011;10974;51.034;3.744;2023-08-21T14:57:44;5.00;;;2.00;;
21624;SDS011;10974;51.034;3.744;2023-08-21T15:00:11;2.10;;;1.60;;
21624;SDS011;10974;51.034;3.744;2023-08-21T15:02:37;1.83;;;1.50;;
21624;SDS011;10974;51.034;3.744;2023-08-21T15:05:03;3.97;;;1.87;;
21624;SDS011;10974;51.034;3.744;2023-08-21T15:07:34;2.50;;;1.87;;
21624;SDS011;10974;51.034;3.744;2023-08-21T15:10:00;3.60;;;1.90;;
21624;SDS011;10974;51.034;3.744;2023-08-21T15:12:26;1.50;;;1.40;;
21624;SDS011;10974;51.034;3.744;2023-08-21T15:14:52;1.60;;;1.50;;
21624;SDS011;10974;51.034;3.744;2023-08-21T15:17:18;2.20;;;1.43;;
21624;SDS011;10974;51.034;3.744;2023-08-21T15:19:45;2.80;;;1.67;;
21624;SDS011;10974;51.034;3.744;2023-08-21T15:22:11;2.30;;;1.40;;
21624;SDS011;10974;51.034;3.744;2023-08-21T15:24:37;1.40;;;1.30;;
21624;SDS011;10974;51.034;3.744;2023-08-21T15:27:03;2.43;;;1.67;;
21624;SDS011;10974;51.034;3.744;2023-08-21T15:29:29;5.63;;;1.93;;
21624;SDS011;10974;51.034;3.744;2023-08-21T15:31:55;25.97;;;4.50;;
21624;SDS011;10974;51.034;3.744;2023-08-21T15:34:21;11.93;;;3.17;;
21624;SDS011;10974;51.034;3.744;2023-08-21T15:36:47;7.10;;;2.80;;
21624;SDS011;10974;51.034;3.744;2023-08-21T15:39:13;6.27;;;2.63;;
21624;SDS011;10974;51.034;3.744;2023-08-21T15:41:40;7.50;;;2.60;;
21624;SDS011;10974;51.034;3.744;2023-08-21T15:44:07;6.90;;;2.73;;
21624;SDS011;10974;51.034;3.744;2023-08-21T15:46:33;4.37;;;2.20;;
21624;SDS011;10974;51.034;3.744;2023-08-21T15:48:59;4.00;;;2.33;;
21624;SDS011;10974;51.034;3.744;2023-08-21T15:51:25;2.63;;;2.17;;
21624;SDS011;10974;51.034;3.744;2023-08-21T15:53:51;3.67;;;2.00;;
21624;SDS011;10974;51.034;3.744;2023-08-21T15:56:17;3.10;;;2.07;;
21624;SDS011;10974;51.034;3.744;2023-08-21T15:58:43;3.60;;;1.90;;
21624;SDS011;10974;51.034;3.744;2023-08-21T16:01:09;2.40;;;1.77;;
21624;SDS011;10974;51.034;3.744;2023-08-21T16:03:35;3.47;;;2.10;;
21624;SDS011;10974;51.034;3.744;2023-08-21T16:06:02;2.80;;;1.80;;
21624;SDS011;10974;51.034;3.744;2023-08-21T16:08:28;3.23;;;1.63;;
21624;SDS011;10974;51.034;3.744;2023-08-21T16:10:54;3.03;;;1.73;;
21624;SDS011;10974;51.034;3.744;2023-08-21T16:13:20;2.63;;;1.73;;
21624;SDS011;10974;51.034;3.744;2023-08-21T16:15:46;1.87;;;1.70;;
21624;SDS011;10974;51.034;3.744;2023-08-21T16:18:12;5.63;;;1.87;;
21624;SDS011;10974;51.034;3.744;2023-08-21T16:20:38;2.90;;;1.90;;
21624;SDS011;10974;51.034;3.744;2023-08-21T16:23:04;3.70;;;1.90;;
21624;SDS011;10974;51.034;3.744;2023-08-21T16:25:30;3.13;;;1.80;;
21624;SDS011;10974;51.034;3.744;2023-08-21T16:27:57;5.47;;;2.10;;
21624;SDS011;10974;51.034;3.744;2023-08-21T16:30:23;5.30;;;2.17;;
21624;SDS011;10974;51.034;3.744;2023-08-21T16:32:49;4.97;;;2.17;;
21624;SDS011;10974;51.034;3.744;2023-08-21T16:35:15;6.00;;;2.30;;
21624;SDS011;10974;51.034;3.744;2023-08-21T16:37:42;3.10;;;1.80;;
21624;SDS011;10974;51.034;3.744;2023-08-21T16:40:08;3.80;;;2.17;;
21624;SDS011;10974;51.034;3.744;2023-08-21T16:42:34;3.43;;;1.90;;
21624;SDS011;10974;51.034;3.744;2023-08-21T16:45:00;7.33;;;1.80;;
21624;SDS011;10974;51.034;3.744;2023-08-21T16:47:27;6.20;;;2.00;;
21624;SDS011;10974;51.034;3.744;2023-08-21T16:49:54;11.63;;;2.00;;
21624;SDS011;10974;51.034;3.744;2023-08-21T16:52:20;7.63;;;2.20;;
21624;SDS011;10974;51.034;3.744;2023-08-21T16:54:46;3.93;;;1.90;;
21624;SDS011;10974;51.034;3.744;2023-08-21T16:57:13;2.87;;;2.00;;
21624;SDS011;10974;51.034;3.744;2023-08-21T16:59:39;4.17;;;1.80;;
21624;SDS011;10974;51.034;3.744;2023-08-21T17:02:05;3.47;;;1.50;;
21624;SDS011;10974;51.034;3.744;2023-08-21T17:04:31;6.07;;;1.70;;
21624;SDS011;10974;51.034;3.744;2023-08-21T17:06:57;3.33;;;1.50;;
21624;SDS011;10974;51.034;3.744;2023-08-21T17:09:23;2.47;;;1.70;;
21624;SDS011;10974;51.034;3.744;2023-08-21T17:11:49;5.37;;;1.93;;
21624;SDS011;10974;51.034;3.744;2023-08-21T17:14:15;3.73;;;1.87;;
21624;SDS011;10974;51.034;3.744;2023-08-21T17:16:42;4.53;;;1.80;;
21624;SDS011;10974;51.034;3.744;2023-08-21T17:19:08;2.90;;;2.10;;
21624;SDS011;10974;51.034;3.744;2023-08-21T17:21:34;5.10;;;2.10;;
21624;SDS011;10974;51.034;3.744;2023-08-21T17:24:00;2.70;;;1.60;;
21624;SDS011;10974;51.034;3.744;2023-08-21T17:26:26;4.87;;;1.90;;
21624;SDS011;10974;51.034;3.744;2023-08-21T17:28:52;4.10;;;1.40;;
21624;SDS011;10974;51.034;3.744;2023-08-21T17:31:19;2.77;;;1.90;;
21624;SDS011;10974;51.034;3.744;2023-08-21T17:33:45;4.80;;;2.30;;
21624;SDS011;10974;51.034;3.744;2023-08-21T17:36:11;4.33;;;1.80;;
21624;SDS011;10974;51.034;3.744;2023-08-21T17:38:37;7.40;;;1.93;;
21624;SDS011;10974;51.034;3.744;2023-08-21T17:41:03;7.53;;;2.03;;
21624;SDS011;10974;51.034;3.744;2023-08-21T17:43:29;10.00;;;2.20;;
21624;SDS011;10974;51.034;3.744;2023-08-21T17:45:55;6.10;;;2.30;;
21624;SDS011;10974;51.034;3.744;2023-08-21T17:48:22;3.00;;;2.10;;
21624;SDS011;10974;51.034;3.744;2023-08-21T17:50:48;6.00;;;2.37;;
21624;SDS011;10974;51.034;3.744;2023-08-21T17:53:14;2.63;;;1.70;;
21624;SDS011;10974;51.034;3.744;2023-08-21T17:55:40;3.93;;;1.90;;
21624;SDS011;10974;51.034;3.744;2023-08-21T17:58:06;6.33;;;1.80;;
21624;SDS011;10974;51.034;3.744;2023-08-21T18:00:32;10.53;;;2.27;;
21624;SDS011;10974;51.034;3.744;2023-08-21T18:02:58;10.20;;;2.70;;
21624;SDS011;10974;51.034;3.744;2023-08-21T18:05:25;5.97;;;2.47;;
21624;SDS011;10974;51.034;3.744;2023-08-21T18:07:51;10.87;;;2.47;;
21624;SDS011;10974;51.034;3.744;2023-08-21T18:10:17;10.37;;;2.27;;
21624;SDS011;10974;51.034;3.744;2023-08-21T18:12:43;5.53;;;2.20;;
21624;SDS011;10974;51.034;3.744;2023-08-21T18:15:10;9.83;;;2.47;;
21624;SDS011;10974;51.034;3.744;2023-08-21T18:17:36;5.40;;;2.10;;
21624;SDS011;10974;51.034;3.744;2023-08-21T18:20:02;8.33;;;2.60;;
21624;SDS011;10974;51.034;3.744;2023-08-21T18:22:30;10.13;;;2.70;;
21624;SDS011;10974;51.034;3.744;2023-08-21T18:24:56;6.60;;;2.23;;
21624;SDS011;10974;51.034;3.744;2023-08-21T18:27:22;7.30;;;2.83;;